sensor_id;sensor_type;location;lat;lon;timestamp;noise_LAeq;noise_LA_min;noise_LA_max;noise_LA01;noise_LA95
57439;Laerm;43282;47.188;8.896;2023-10-09T00:00:18;43.68;39.89;52.00;;
57439;Laerm;43282;47.188;8.896;2023-10-09T00:02:56;42.92;38.95;53.94;;
57439;Laerm;43282;47.188;8.896;2023-10-09T00:05:23;42.58;38.37;49.12;;
57439;Laerm;43282;47.188;8.896;2023-10-09T00:07:53;43.71;38.95;53.76;;
57439;Laerm;43282;47.188;8.896;2023-10-09T00:10:21;44.46;40.03;52.70;;
57439;Laerm;43282;47.188;8.896;2023-10-09T00:12:47;42.30;38.52;48.10;;
57439;Laerm;43282;47.188;8.896;2023-10-09T00:15:14;44.06;39.58;53.71;;
57439;Laerm;43282;47.188;8.896;2023-10-09T00:17:43;43.76;40.43;51.33;;
57439;Laerm;43282;47.188;8.896;2023-10-09T00:20:12;45.63;40.80;54.63;;
57439;Laerm;43282;47.188;8.896;2023-10-09T00:22:45;44.46;40.89;54.28;;
57439;Laerm;43282;47.188;8.896;2023-10-09T00:25:11;43.86;39.81;54.51;;
57439;Laerm;43282;47.188;8.896;2023-10-09T00:27:38;42.98;38.74;51.97;;
57439;Laerm;43282;47.188;8.896;2023-10-09T00:30:11;43.53;39.70;53.66;;
57439;Laerm;43282;47.188;8.896;2023-10-09T00:32:40;43.40;39.21;56.33;;
57439;Laerm;43282;47.188;8.896;2023-10-09T00:35:10;44.12;40.33;51.54;;
57439;Laerm;43282;47.188;8.896;2023-10-09T00:37:59;44.82;40.79;51.54;;
57439;Laerm;43282;47.188;8.896;2023-10-09T00:40:31;44.72;40.23;52.66;;
57439;Laerm;43282;47.188;8.896;2023-10-09T00:42:59;42.70;39.21;52.09;;
57439;Laerm;43282;47.188;8.896;2023-10-09T00:45:52;41.10;38.37;47.06;;
57439;Laerm;43282;47.188;8.896;2023-10-09T00:48:18;44.47;38.67;57.77;;
57439;Laerm;43282;47.188;8.896;2023-10-09T00:50:55;42.95;39.70;53.80;;
57439;Laerm;43282;47.188;8.896;2023-10-09T00:53:25;43.83;40.03;53.03;;
57439;Laerm;43282;47.188;8.896;2023-10-09T00:55:58;48.35;39.21;64.04;;
57439;Laerm;43282;47.188;8.896;2023-10-09T00:58:30;43.65;40.53;56.38;;
57439;Laerm;43282;47.188;8.896;2023-10-09T01:01:01;44.07;40.71;49.63;;
57439;Laerm;43282;47.188;8.896;2023-10-09T01:03:30;43.75;40.71;49.40;;
57439;Laerm;43282;47.188;8.896;2023-10-09T01:06:00;42.83;39.70;47.40;;
57439;Laerm;43282;47.188;8.896;2023-10-09T01:08:41;43.88;41.11;53.69;;
57439;Laerm;43282;47.188;8.896;2023-10-09T01:11:07;43.20;39.92;50.45;;
57439;Laerm;43282;47.188;8.896;2023-10-09T01:13:39;43.03;39.81;48.00;;
57439;Laerm;43282;47.188;8.896;2023-10-09T01:16:21;42.79;39.08;47.70;;
57439;Laerm;43282;47.188;8.896;2023-10-09T01:18:53;43.49;40.03;50.00;;
57439;Laerm;43282;47.188;8.896;2023-10-09T01:21:22;48.12;40.23;62.94;;
57439;Laerm;43282;47.188;8.896;2023-10-09T01:23:49;43.05;40.13;58.54;;
57439;Laerm;43282;47.188;8.896;2023-10-09T01:26:44;43.02;40.13;50.19;;
57439;Laerm;43282;47.188;8.896;2023-10-09T01:31:40;42.41;39.46;46.87;;
57439;Laerm;43282;47.188;8.896;2023-10-09T01:34:12;42.67;39.34;48.63;;
57439;Laerm;43282;47.188;8.896;2023-10-09T01:36:40;42.27;39.46;48.73;;
57439;Laerm;43282;47.188;8.896;2023-10-09T01:39:07;42.70;39.81;47.96;;
57439;Laerm;43282;47.188;8.896;2023-10-09T01:41:56;43.65;40.62;50.71;;
57439;Laerm;43282;47.188;8.896;2023-10-09T01:44:25;43.37;40.23;50.09;;
57439;Laerm;43282;47.188;8.896;2023-10-09T01:46:52;42.90;39.21;48.63;;
57439;Laerm;43282;47.188;8.896;2023-10-09T01:49:20;41.80;38.52;47.83;;
57439;Laerm;43282;47.188;8.896;2023-10-09T01:51:56;42.13;39.46;48.57;;
57439;Laerm;43282;47.188;8.896;2023-10-09T01:54:28;43.01;39.92;50.73;;
57439;Laerm;43282;47.188;8.896;2023-10-09T01:57:04;43.41;40.03;49.47;;
57439;Laerm;43282;47.188;8.896;2023-10-09T01:59:42;45.24;39.58;60.96;;
57439;Laerm;43282;47.188;8.896;2023-10-09T02:02:12;43.86;39.46;55.33;;
57439;Laerm;43282;47.188;8.896;2023-10-09T02:05:03;44.43;40.03;53.51;;
57439;Laerm;43282;47.188;8.896;2023-10-09T02:07:36;44.15;40.33;53.15;;
57439;Laerm;43282;47.188;8.896;2023-10-09T02:10:26;43.53;39.70;51.28;;
57439;Laerm;43282;47.188;8.896;2023-10-09T02:15:23;43.80;40.43;51.80;;
57439;Laerm;43282;47.188;8.896;2023-10-09T02:18:08;45.67;41.46;56.19;;
57439;Laerm;43282;47.188;8.896;2023-10-09T02:20:43;45.53;41.53;54.19;;
57439;Laerm;43282;47.188;8.896;2023-10-09T02:23:10;46.96;41.68;56.09;;
57439;Laerm;43282;47.188;8.896;2023-10-09T02:25:38;46.02;41.61;53.73;;
57439;Laerm;43282;47.188;8.896;2023-10-09T02:28:08;53.29;41.89;79.83;;
57439;Laerm;43282;47.188;8.896;2023-10-09T02:30:34;45.60;41.82;51.64;;
57439;Laerm;43282;47.188;8.896;2023-10-09T02:32:59;47.27;42.29;55.07;;
57439;Laerm;43282;47.188;8.896;2023-10-09T02:35:34;45.64;42.65;53.00;;
57439;Laerm;43282;47.188;8.896;2023-10-09T02:38:09;45.20;41.53;51.61;;
57439;Laerm;43282;47.188;8.896;2023-10-09T02:40:40;53.01;41.06;67.69;;
57439;Laerm;43282;47.188;8.896;2023-10-09T02:43:26;45.33;42.09;52.50;;
57439;Laerm;43282;47.188;8.896;2023-10-09T02:45:52;49.94;42.16;65.51;;
57439;Laerm;43282;47.188;8.896;2023-10-09T02:48:18;49.42;42.09;66.11;;
57439;Laerm;43282;47.188;8.896;2023-10-09T02:50:50;55.38;42.59;71.26;;
57439;Laerm;43282;47.188;8.896;2023-10-09T02:53:17;49.07;42.82;63.71;;
57439;Laerm;43282;47.188;8.896;2023-10-09T02:55:45;47.17;42.82;55.14;;
57439;Laerm;43282;47.188;8.896;2023-10-09T02:58:31;52.41;42.35;68.75;;
57439;Laerm;43282;47.188;8.896;2023-10-09T03:01:01;49.08;43.04;60.00;;
57439;Laerm;43282;47.188;8.896;2023-10-09T03:03:27;49.38;44.11;61.25;;
57439;Laerm;43282;47.188;8.896;2023-10-09T03:05:53;51.83;44.11;65.00;;
57439;Laerm;43282;47.188;8.896;2023-10-09T03:08:19;50.66;45.30;56.10;;
57439;Laerm;43282;47.188;8.896;2023-10-09T03:10:45;48.42;44.11;54.95;;
57439;Laerm;43282;47.188;8.896;2023-10-09T03:13:10;49.65;45.30;56.59;;
57439;Laerm;43282;47.188;8.896;2023-10-09T03:15:38;50.31;44.90;57.01;;
57439;Laerm;43282;47.188;8.896;2023-10-09T03:18:03;49.24;44.76;55.56;;
57439;Laerm;43282;47.188;8.896;2023-10-09T03:20:30;50.00;44.39;62.43;;
57439;Laerm;43282;47.188;8.896;2023-10-09T03:22:56;49.67;44.87;58.11;;
57439;Laerm;43282;47.188;8.896;2023-10-09T03:25:22;51.67;44.97;63.66;;
57439;Laerm;43282;47.188;8.896;2023-10-09T03:27:50;49.69;44.35;59.29;;
57439;Laerm;43282;47.188;8.896;2023-10-09T03:30:17;50.62;46.20;56.78;;
57439;Laerm;43282;47.188;8.896;2023-10-09T03:32:49;49.85;44.69;58.23;;
57439;Laerm;43282;47.188;8.896;2023-10-09T03:35:18;49.99;45.42;55.29;;
57439;Laerm;43282;47.188;8.896;2023-10-09T03:37:58;53.30;47.70;60.06;;
57439;Laerm;43282;47.188;8.896;2023-10-09T03:40:56;51.93;46.93;60.27;;
57439;Laerm;43282;47.188;8.896;2023-10-09T03:43:22;52.21;46.07;62.36;;
57439;Laerm;43282;47.188;8.896;2023-10-09T03:45:48;52.58;45.66;66.60;;
57439;Laerm;43282;47.188;8.896;2023-10-09T03:48:22;51.71;46.93;62.00;;
57439;Laerm;43282;47.188;8.896;2023-10-09T03:50:51;52.14;45.97;66.49;;
57439;Laerm;43282;47.188;8.896;2023-10-09T03:53:34;53.63;48.84;61.64;;
57439;Laerm;43282;47.188;8.896;2023-10-09T03:56:06;53.21;48.26;60.10;;
57439;Laerm;43282;47.188;8.896;2023-10-09T03:58:37;53.03;47.50;61.47;;
57439;Laerm;43282;47.188;8.896;2023-10-09T04:01:07;56.45;49.47;71.97;;
57439;Laerm;43282;47.188;8.896;2023-10-09T04:03:36;63.25;53.14;74.67;;
57439;Laerm;43282;47.188;8.896;2023-10-09T04:06:02;54.88;48.39;65.06;;
57439;Laerm;43282;47.188;8.896;2023-10-09T04:08:29;53.77;48.03;59.86;;
57439;Laerm;43282;47.188;8.896;2023-10-09T04:10:55;53.77;49.29;62.02;;
57439;Laerm;43282;47.188;8.896;2023-10-09T04:13:28;54.77;49.38;62.36;;
57439;Laerm;43282;47.188;8.896;2023-10-09T04:16:02;55.07;49.52;61.42;;
57439;Laerm;43282;47.188;8.896;2023-10-09T04:18:57;54.04;48.61;64.04;;
57439;Laerm;43282;47.188;8.896;2023-10-09T04:21:26;54.69;49.15;62.29;;
57439;Laerm;43282;47.188;8.896;2023-10-09T04:24:05;56.31;50.56;65.72;;
57439;Laerm;43282;47.188;8.896;2023-10-09T04:26:37;54.40;48.99;59.53;;
57439;Laerm;43282;47.188;8.896;2023-10-09T04:29:03;54.18;49.37;59.34;;
57439;Laerm;43282;47.188;8.896;2023-10-09T04:31:29;53.78;48.51;60.53;;
57439;Laerm;43282;47.188;8.896;2023-10-09T04:34:00;56.19;49.14;67.93;;
57439;Laerm;43282;47.188;8.896;2023-10-09T04:36:44;58.04;48.20;76.32;;
57439;Laerm;43282;47.188;8.896;2023-10-09T04:39:15;55.65;49.23;66.87;;
57439;Laerm;43282;47.188;8.896;2023-10-09T04:42:01;54.63;48.71;62.29;;
57439;Laerm;43282;47.188;8.896;2023-10-09T04:44:45;53.54;47.61;65.82;;
57439;Laerm;43282;47.188;8.896;2023-10-09T04:47:30;54.09;49.38;61.71;;
57439;Laerm;43282;47.188;8.896;2023-10-09T04:50:08;54.89;50.07;60.78;;
57439;Laerm;43282;47.188;8.896;2023-10-09T04:53:00;54.61;49.03;64.02;;
57439;Laerm;43282;47.188;8.896;2023-10-09T04:55:44;54.35;49.00;64.39;;
57439;Laerm;43282;47.188;8.896;2023-10-09T04:58:19;54.96;50.29;67.63;;
57439;Laerm;43282;47.188;8.896;2023-10-09T05:00:57;54.90;49.85;62.65;;
57439;Laerm;43282;47.188;8.896;2023-10-09T05:03:22;53.83;49.80;57.88;;
57439;Laerm;43282;47.188;8.896;2023-10-09T05:06:08;55.18;50.27;63.92;;
57439;Laerm;43282;47.188;8.896;2023-10-09T05:08:46;55.09;50.56;60.45;;
57439;Laerm;43282;47.188;8.896;2023-10-09T05:11:13;54.83;50.60;60.20;;
57439;Laerm;43282;47.188;8.896;2023-10-09T05:14:07;57.08;50.98;69.94;;
57439;Laerm;43282;47.188;8.896;2023-10-09T05:16:39;55.90;51.13;61.52;;
57439;Laerm;43282;47.188;8.896;2023-10-09T05:19:22;56.90;50.38;67.54;;
57439;Laerm;43282;47.188;8.896;2023-10-09T05:21:59;57.14;50.64;67.65;;
57439;Laerm;43282;47.188;8.896;2023-10-09T05:24:30;56.11;50.27;65.65;;
57439;Laerm;43282;47.188;8.896;2023-10-09T05:27:09;55.17;51.21;65.88;;
57439;Laerm;43282;47.188;8.896;2023-10-09T05:29:58;56.83;49.62;69.91;;
57439;Laerm;43282;47.188;8.896;2023-10-09T05:32:38;55.17;49.77;67.30;;
57439;Laerm;43282;47.188;8.896;2023-10-09T05:35:13;53.70;49.18;65.42;;
57439;Laerm;43282;47.188;8.896;2023-10-09T05:37:45;54.89;50.44;61.80;;
57439;Laerm;43282;47.188;8.896;2023-10-09T05:40:12;55.61;49.95;69.55;;
57439;Laerm;43282;47.188;8.896;2023-10-09T05:42:43;55.82;49.10;67.64;;
57439;Laerm;43282;47.188;8.896;2023-10-09T05:45:18;55.91;49.84;67.85;;
57439;Laerm;43282;47.188;8.896;2023-10-09T05:47:50;54.20;49.66;63.22;;
57439;Laerm;43282;47.188;8.896;2023-10-09T05:50:26;60.79;50.25;77.91;;
57439;Laerm;43282;47.188;8.896;2023-10-09T05:52:53;55.27;51.07;61.10;;
57439;Laerm;43282;47.188;8.896;2023-10-09T05:57:44;54.94;49.33;62.57;;
57439;Laerm;43282;47.188;8.896;2023-10-09T06:00:23;57.19;51.92;74.38;;
57439;Laerm;43282;47.188;8.896;2023-10-09T06:03:07;58.16;50.96;77.84;;
57439;Laerm;43282;47.188;8.896;2023-10-09T06:05:49;55.84;51.84;63.97;;
57439;Laerm;43282;47.188;8.896;2023-10-09T06:08:21;56.60;50.05;66.92;;
57439;Laerm;43282;47.188;8.896;2023-10-09T06:10:55;60.17;50.55;75.15;;
57439;Laerm;43282;47.188;8.896;2023-10-09T06:13:39;56.21;50.70;66.62;;
57439;Laerm;43282;47.188;8.896;2023-10-09T06:16:26;54.48;49.90;65.36;;
57439;Laerm;43282;47.188;8.896;2023-10-09T06:21:52;54.92;49.39;70.20;;
57439;Laerm;43282;47.188;8.896;2023-10-09T06:24:24;58.97;52.10;71.50;;
57439;Laerm;43282;47.188;8.896;2023-10-09T06:26:51;56.45;50.91;70.65;;
57439;Laerm;43282;47.188;8.896;2023-10-09T06:29:41;56.93;49.38;70.83;;
57439;Laerm;43282;47.188;8.896;2023-10-09T06:32:35;56.65;50.20;68.45;;
57439;Laerm;43282;47.188;8.896;2023-10-09T06:35:02;57.28;48.66;73.06;;
57439;Laerm;43282;47.188;8.896;2023-10-09T06:37:41;55.60;49.04;65.71;;
57439;Laerm;43282;47.188;8.896;2023-10-09T06:40:25;55.01;46.66;69.78;;
57439;Laerm;43282;47.188;8.896;2023-10-09T06:43:09;55.37;47.30;66.69;;
57439;Laerm;43282;47.188;8.896;2023-10-09T06:45:40;55.19;48.40;68.57;;
57439;Laerm;43282;47.188;8.896;2023-10-09T06:48:20;60.52;48.71;78.11;;
57439;Laerm;43282;47.188;8.896;2023-10-09T06:51:04;51.96;47.44;59.53;;
57439;Laerm;43282;47.188;8.896;2023-10-09T06:53:41;51.82;46.59;58.74;;
57439;Laerm;43282;47.188;8.896;2023-10-09T06:56:22;53.54;47.20;67.69;;
57439;Laerm;43282;47.188;8.896;2023-10-09T06:59:11;54.47;46.66;66.43;;
57439;Laerm;43282;47.188;8.896;2023-10-09T07:01:56;50.73;46.40;58.30;;
57439;Laerm;43282;47.188;8.896;2023-10-09T07:04:33;53.64;45.60;78.80;;
57439;Laerm;43282;47.188;8.896;2023-10-09T07:06:59;50.47;45.27;58.64;;
57439;Laerm;43282;47.188;8.896;2023-10-09T07:09:32;51.60;45.66;64.24;;
57439;Laerm;43282;47.188;8.896;2023-10-09T07:12:16;50.97;45.14;62.08;;
57439;Laerm;43282;47.188;8.896;2023-10-09T07:14:52;49.47;45.20;59.44;;
57439;Laerm;43282;47.188;8.896;2023-10-09T07:17:20;49.14;44.47;60.20;;
57439;Laerm;43282;47.188;8.896;2023-10-09T07:20:10;53.27;44.76;67.11;;
57439;Laerm;43282;47.188;8.896;2023-10-09T07:22:41;49.33;43.94;66.37;;
57439;Laerm;43282;47.188;8.896;2023-10-09T07:25:21;49.80;44.35;68.10;;
57439;Laerm;43282;47.188;8.896;2023-10-09T07:27:55;60.75;44.31;77.24;;
57439;Laerm;43282;47.188;8.896;2023-10-09T07:30:26;50.35;44.15;65.69;;
57439;Laerm;43282;47.188;8.896;2023-10-09T07:35:21;51.10;44.65;66.45;;
57439;Laerm;43282;47.188;8.896;2023-10-09T07:38:05;49.23;44.23;61.98;;
57439;Laerm;43282;47.188;8.896;2023-10-09T07:40:34;53.38;44.69;65.17;;
57439;Laerm;43282;47.188;8.896;2023-10-09T07:43:17;48.17;44.19;65.01;;
57439;Laerm;43282;47.188;8.896;2023-10-09T07:45:43;48.45;44.35;61.70;;
57439;Laerm;43282;47.188;8.896;2023-10-09T07:48:24;51.09;44.97;75.42;;
57439;Laerm;43282;47.188;8.896;2023-10-09T07:51:04;51.94;44.51;65.01;;
57439;Laerm;43282;47.188;8.896;2023-10-09T07:53:36;51.45;44.65;69.22;;
57439;Laerm;43282;47.188;8.896;2023-10-09T07:56:08;50.46;44.45;73.33;;
57439;Laerm;43282;47.188;8.896;2023-10-09T07:58:34;60.77;43.39;77.65;;
57439;Laerm;43282;47.188;8.896;2023-10-09T08:01:11;59.26;44.15;77.11;;
57439;Laerm;43282;47.188;8.896;2023-10-09T08:04:03;51.37;43.81;71.64;;
57439;Laerm;43282;47.188;8.896;2023-10-09T08:06:39;61.60;43.29;80.35;;
57439;Laerm;43282;47.188;8.896;2023-10-09T08:09:11;51.85;43.49;67.58;;
57439;Laerm;43282;47.188;8.896;2023-10-09T08:11:40;54.78;43.54;69.92;;
57439;Laerm;43282;47.188;8.896;2023-10-09T08:14:08;48.77;43.58;62.24;;
57439;Laerm;43282;47.188;8.896;2023-10-09T08:16:46;46.34;43.24;65.89;;
57439;Laerm;43282;47.188;8.896;2023-10-09T08:19:12;49.73;43.19;62.84;;
57439;Laerm;43282;47.188;8.896;2023-10-09T08:22:07;53.54;43.14;67.95;;
57439;Laerm;43282;47.188;8.896;2023-10-09T08:24:47;49.15;42.59;64.28;;
57439;Laerm;43282;47.188;8.896;2023-10-09T08:27:25;46.35;42.98;53.69;;
57439;Laerm;43282;47.188;8.896;2023-10-09T08:30:00;49.14;43.68;68.93;;
57439;Laerm;43282;47.188;8.896;2023-10-09T08:32:45;52.59;43.68;71.12;;
57439;Laerm;43282;47.188;8.896;2023-10-09T08:35:32;46.72;43.24;58.63;;
57439;Laerm;43282;47.188;8.896;2023-10-09T08:37:59;46.89;43.99;59.36;;
57439;Laerm;43282;47.188;8.896;2023-10-09T08:40:37;52.66;43.49;66.91;;
57439;Laerm;43282;47.188;8.896;2023-10-09T08:45:39;47.14;43.34;55.35;;
57439;Laerm;43282;47.188;8.896;2023-10-09T08:48:06;45.40;42.71;51.50;;
57439;Laerm;43282;47.188;8.896;2023-10-09T08:50:32;45.42;42.53;52.11;;
57439;Laerm;43282;47.188;8.896;2023-10-09T08:53:00;46.73;42.88;58.25;;
57439;Laerm;43282;47.188;8.896;2023-10-09T08:55:26;59.18;43.58;77.29;;
57439;Laerm;43282;47.188;8.896;2023-10-09T08:57:52;47.44;43.68;58.42;;
57439;Laerm;43282;47.188;8.896;2023-10-09T09:00:18;62.23;43.58;81.83;;
57439;Laerm;43282;47.188;8.896;2023-10-09T09:02:57;55.45;43.19;66.10;;
57439;Laerm;43282;47.188;8.896;2023-10-09T09:05:25;52.83;43.49;63.34;;
57439;Laerm;43282;47.188;8.896;2023-10-09T09:07:54;51.95;42.29;67.00;;
57439;Laerm;43282;47.188;8.896;2023-10-09T09:10:28;51.53;43.14;68.65;;
57439;Laerm;43282;47.188;8.896;2023-10-09T09:13:03;51.21;42.29;67.47;;
57439;Laerm;43282;47.188;8.896;2023-10-09T09:15:29;45.91;42.71;60.64;;
57439;Laerm;43282;47.188;8.896;2023-10-09T09:18:04;48.26;41.96;61.48;;
57439;Laerm;43282;47.188;8.896;2023-10-09T09:20:31;46.43;41.82;66.72;;
57439;Laerm;43282;47.188;8.896;2023-10-09T09:23:02;47.95;42.03;68.90;;
57439;Laerm;43282;47.188;8.896;2023-10-09T09:25:44;47.09;43.09;59.01;;
57439;Laerm;43282;47.188;8.896;2023-10-09T09:28:14;58.38;42.22;75.42;;
57439;Laerm;43282;47.188;8.896;2023-10-09T09:30:51;51.30;42.59;67.91;;
57439;Laerm;43282;47.188;8.896;2023-10-09T09:33:21;59.32;41.96;77.15;;
57439;Laerm;43282;47.188;8.896;2023-10-09T09:36:06;44.73;41.89;53.27;;
57439;Laerm;43282;47.188;8.896;2023-10-09T09:38:33;48.72;41.53;64.39;;
57439;Laerm;43282;47.188;8.896;2023-10-09T09:41:12;51.29;42.22;67.34;;
57439;Laerm;43282;47.188;8.896;2023-10-09T09:43:38;52.83;43.14;66.01;;
57439;Laerm;43282;47.188;8.896;2023-10-09T09:46:07;55.64;43.42;70.38;;
57439;Laerm;43282;47.188;8.896;2023-10-09T09:48:42;47.34;42.65;61.70;;
57439;Laerm;43282;47.188;8.896;2023-10-09T09:51:13;55.29;42.76;71.98;;
57439;Laerm;43282;47.188;8.896;2023-10-09T09:53:42;52.22;42.35;66.87;;
57439;Laerm;43282;47.188;8.896;2023-10-09T09:56:12;48.29;42.09;67.15;;
57439;Laerm;43282;47.188;8.896;2023-10-09T09:58:43;59.22;43.04;77.70;;
57439;Laerm;43282;47.188;8.896;2023-10-09T10:01:10;51.66;42.59;66.49;;
57439;Laerm;43282;47.188;8.896;2023-10-09T10:04:11;51.21;42.76;84.59;;
57439;Laerm;43282;47.188;8.896;2023-10-09T10:06:40;54.71;41.96;72.93;;
57439;Laerm;43282;47.188;8.896;2023-10-09T10:09:08;51.18;42.03;69.40;;
57439;Laerm;43282;47.188;8.896;2023-10-09T10:11:44;50.67;42.65;66.33;;
57439;Laerm;43282;47.188;8.896;2023-10-09T10:14:10;50.08;41.82;66.52;;
57439;Laerm;43282;47.188;8.896;2023-10-09T10:17:27;55.69;42.16;69.56;;
57439;Laerm;43282;47.188;8.896;2023-10-09T10:20:03;50.71;41.22;68.09;;
57439;Laerm;43282;47.188;8.896;2023-10-09T10:22:44;47.37;41.89;61.01;;
57439;Laerm;43282;47.188;8.896;2023-10-09T10:28:17;50.79;42.03;65.00;;
57439;Laerm;43282;47.188;8.896;2023-10-09T10:31:03;46.13;41.14;60.85;;
57439;Laerm;43282;47.188;8.896;2023-10-09T10:36:13;46.65;41.38;58.82;;
57439;Laerm;43282;47.188;8.896;2023-10-09T10:38:59;58.51;42.03;78.06;;
57439;Laerm;43282;47.188;8.896;2023-10-09T10:41:29;43.11;40.62;47.22;;
57439;Laerm;43282;47.188;8.896;2023-10-09T10:44:01;43.53;40.71;52.25;;
57439;Laerm;43282;47.188;8.896;2023-10-09T10:46:46;47.94;40.89;62.37;;
57439;Laerm;43282;47.188;8.896;2023-10-09T10:49:17;44.24;41.38;48.90;;
57439;Laerm;43282;47.188;8.896;2023-10-09T10:51:47;47.56;41.06;63.50;;
57439;Laerm;43282;47.188;8.896;2023-10-09T10:54:35;45.84;41.38;61.71;;
57439;Laerm;43282;47.188;8.896;2023-10-09T10:57:01;52.88;40.43;71.64;;
57439;Laerm;43282;47.188;8.896;2023-10-09T10:59:30;48.30;41.61;67.18;;
57439;Laerm;43282;47.188;8.896;2023-10-09T11:02:03;43.75;40.23;57.55;;
57439;Laerm;43282;47.188;8.896;2023-10-09T11:04:34;47.70;40.62;63.03;;
57439;Laerm;43282;47.188;8.896;2023-10-09T11:07:10;56.00;42.65;70.43;;
57439;Laerm;43282;47.188;8.896;2023-10-09T11:09:50;54.52;42.35;69.28;;
57439;Laerm;43282;47.188;8.896;2023-10-09T11:15:08;47.36;43.09;58.85;;
57439;Laerm;43282;47.188;8.896;2023-10-09T11:18:00;47.97;42.65;62.10;;
57439;Laerm;43282;47.188;8.896;2023-10-09T11:20:39;46.56;42.53;63.73;;
57439;Laerm;43282;47.188;8.896;2023-10-09T11:23:20;44.58;41.96;56.43;;
57439;Laerm;43282;47.188;8.896;2023-10-09T11:25:55;47.58;42.41;60.59;;
57439;Laerm;43282;47.188;8.896;2023-10-09T11:28:33;49.67;41.06;66.32;;
57439;Laerm;43282;47.188;8.896;2023-10-09T11:31:17;53.02;42.65;72.08;;
57439;Laerm;43282;47.188;8.896;2023-10-09T11:33:45;47.66;42.35;68.41;;
57439;Laerm;43282;47.188;8.896;2023-10-09T11:36:21;54.03;41.89;66.86;;
57439;Laerm;43282;47.188;8.896;2023-10-09T11:38:57;50.53;42.29;64.81;;
57439;Laerm;43282;47.188;8.896;2023-10-09T11:41:42;53.86;42.65;66.32;;
57439;Laerm;43282;47.188;8.896;2023-10-09T11:44:09;46.92;41.96;62.89;;
57439;Laerm;43282;47.188;8.896;2023-10-09T11:46:58;46.20;42.35;57.29;;
57439;Laerm;43282;47.188;8.896;2023-10-09T11:49:46;49.07;41.96;64.18;;
57439;Laerm;43282;47.188;8.896;2023-10-09T11:52:12;55.66;42.29;73.97;;
57439;Laerm;43282;47.188;8.896;2023-10-09T11:54:38;50.94;41.53;71.23;;
57439;Laerm;43282;47.188;8.896;2023-10-09T11:57:03;44.83;41.53;55.30;;
57439;Laerm;43282;47.188;8.896;2023-10-09T11:59:29;46.36;41.75;55.51;;
57439;Laerm;43282;47.188;8.896;2023-10-09T12:02:05;50.48;42.53;61.40;;
57439;Laerm;43282;47.188;8.896;2023-10-09T12:04:32;47.57;42.71;60.90;;
57439;Laerm;43282;47.188;8.896;2023-10-09T12:06:57;53.57;42.16;69.40;;
57439;Laerm;43282;47.188;8.896;2023-10-09T12:09:32;47.34;41.89;61.14;;
57439;Laerm;43282;47.188;8.896;2023-10-09T12:12:00;46.71;41.46;60.97;;
57439;Laerm;43282;47.188;8.896;2023-10-09T12:14:26;45.67;41.46;66.42;;
57439;Laerm;43282;47.188;8.896;2023-10-09T12:16:58;50.91;41.96;75.51;;
57439;Laerm;43282;47.188;8.896;2023-10-09T12:19:23;52.15;42.65;65.19;;
57439;Laerm;43282;47.188;8.896;2023-10-09T12:21:49;50.94;41.61;67.13;;
57439;Laerm;43282;47.188;8.896;2023-10-09T12:24:14;50.20;43.81;64.82;;
57439;Laerm;43282;47.188;8.896;2023-10-09T12:26:44;49.17;42.65;60.43;;
57439;Laerm;43282;47.188;8.896;2023-10-09T12:29:11;57.28;41.61;71.73;;
57439;Laerm;43282;47.188;8.896;2023-10-09T12:31:36;55.49;41.96;72.54;;
57439;Laerm;43282;47.188;8.896;2023-10-09T12:34:02;46.65;41.75;58.77;;
57439;Laerm;43282;47.188;8.896;2023-10-09T12:36:28;44.68;41.75;54.33;;
57439;Laerm;43282;47.188;8.896;2023-10-09T12:38:54;49.43;41.68;64.53;;
57439;Laerm;43282;47.188;8.896;2023-10-09T12:41:24;47.36;41.68;68.36;;
57439;Laerm;43282;47.188;8.896;2023-10-09T12:43:56;60.61;45.11;80.72;;
57439;Laerm;43282;47.188;8.896;2023-10-09T12:46:25;55.62;44.38;64.58;;
57439;Laerm;43282;47.188;8.896;2023-10-09T12:48:57;52.31;41.89;72.12;;
57439;Laerm;43282;47.188;8.896;2023-10-09T12:51:23;47.78;42.59;61.25;;
57439;Laerm;43282;47.188;8.896;2023-10-09T12:53:55;50.10;42.35;67.89;;
57439;Laerm;43282;47.188;8.896;2023-10-09T12:56:23;44.63;41.33;54.31;;
57439;Laerm;43282;47.188;8.896;2023-10-09T12:58:58;47.91;42.24;63.03;;
57439;Laerm;43282;47.188;8.896;2023-10-09T13:01:23;46.77;42.22;60.96;;
57439;Laerm;43282;47.188;8.896;2023-10-09T13:03:49;47.09;42.35;58.14;;
57439;Laerm;43282;47.188;8.896;2023-10-09T13:06:15;46.68;42.98;64.95;;
57439;Laerm;43282;47.188;8.896;2023-10-09T13:08:42;48.88;42.59;66.20;;
57439;Laerm;43282;47.188;8.896;2023-10-09T13:11:10;55.98;42.82;75.44;;
57439;Laerm;43282;47.188;8.896;2023-10-09T13:13:40;55.55;42.03;81.28;;
57439;Laerm;43282;47.188;8.896;2023-10-09T13:16:13;50.56;41.68;66.68;;
57439;Laerm;43282;47.188;8.896;2023-10-09T13:18:48;45.03;41.38;55.40;;
57439;Laerm;43282;47.188;8.896;2023-10-09T13:21:21;49.14;42.65;65.63;;
57439;Laerm;43282;47.188;8.896;2023-10-09T13:23:47;48.69;41.61;66.27;;
57439;Laerm;43282;47.188;8.896;2023-10-09T13:26:13;52.40;41.75;65.73;;
57439;Laerm;43282;47.188;8.896;2023-10-09T13:28:58;52.81;41.96;67.81;;
57439;Laerm;43282;47.188;8.896;2023-10-09T13:31:24;46.93;41.89;59.48;;
57439;Laerm;43282;47.188;8.896;2023-10-09T13:33:57;46.72;42.35;59.81;;
57439;Laerm;43282;47.188;8.896;2023-10-09T13:36:27;51.52;42.41;63.70;;
57439;Laerm;43282;47.188;8.896;2023-10-09T13:38:53;45.78;42.22;54.91;;
57439;Laerm;43282;47.188;8.896;2023-10-09T13:41:19;48.15;41.89;60.20;;
57439;Laerm;43282;47.188;8.896;2023-10-09T13:43:45;49.72;43.04;62.47;;
57439;Laerm;43282;47.188;8.896;2023-10-09T13:46:11;47.68;42.09;60.80;;
57439;Laerm;43282;47.188;8.896;2023-10-09T13:48:42;56.18;42.47;73.29;;
57439;Laerm;43282;47.188;8.896;2023-10-09T13:51:12;48.20;42.59;57.81;;
57439;Laerm;43282;47.188;8.896;2023-10-09T13:53:43;45.66;42.09;64.16;;
57439;Laerm;43282;47.188;8.896;2023-10-09T13:56:12;48.14;42.09;59.17;;
57439;Laerm;43282;47.188;8.896;2023-10-09T13:58:45;46.72;42.65;60.66;;
57439;Laerm;43282;47.188;8.896;2023-10-09T14:01:10;50.09;42.82;65.07;;
57439;Laerm;43282;47.188;8.896;2023-10-09T14:03:36;59.80;49.37;72.97;;
57439;Laerm;43282;47.188;8.896;2023-10-09T14:06:04;55.66;43.14;69.77;;
57439;Laerm;43282;47.188;8.896;2023-10-09T14:08:38;50.10;42.82;61.39;;
57439;Laerm;43282;47.188;8.896;2023-10-09T14:11:09;49.57;42.76;64.28;;
57439;Laerm;43282;47.188;8.896;2023-10-09T14:13:41;51.42;43.34;67.56;;
57439;Laerm;43282;47.188;8.896;2023-10-09T14:16:07;53.18;43.94;68.24;;
57439;Laerm;43282;47.188;8.896;2023-10-09T14:18:49;50.46;43.09;64.54;;
57439;Laerm;43282;47.188;8.896;2023-10-09T14:21:21;47.20;43.54;60.81;;
57439;Laerm;43282;47.188;8.896;2023-10-09T14:23:47;53.64;43.54;69.68;;
57439;Laerm;43282;47.188;8.896;2023-10-09T14:26:13;47.69;43.24;61.00;;
57439;Laerm;43282;47.188;8.896;2023-10-09T14:28:39;49.29;43.34;65.31;;
57439;Laerm;43282;47.188;8.896;2023-10-09T14:31:04;57.34;42.71;87.28;;
57439;Laerm;43282;47.188;8.896;2023-10-09T14:33:36;49.15;43.04;64.47;;
57439;Laerm;43282;47.188;8.896;2023-10-09T14:36:02;47.77;42.47;61.92;;
57439;Laerm;43282;47.188;8.896;2023-10-09T14:38:29;50.36;44.03;66.52;;
57439;Laerm;43282;47.188;8.896;2023-10-09T14:40:58;52.05;43.24;62.87;;